<?xml version="1.0" encoding="utf-8"?>
<gpx xmlns:xsi="http://www.w3.org/2001/XMLSchema-instance" xmlns:xsd="http://www.w3.org/2001/XMLSchema" version="1.1" creator="Shapelink.com" xmlns="http://www.topografix.com/GPX/1/1" xmlns:gpxtpx="http://www.garmin.com/xmlschemas/TrackPointExtension/v1">
  <metadata>
    <name>Cykling 12.62 km, 2019-09-03</name>
    <desc></desc>
    <author><name>Henrik Staffas</name></author> 
    <time>2019-09-03T07:37:47Z</time>
  </metadata>
  <trk>
    <name>Cykling 12.62 km, 2019-09-03</name>
    <trkseg>
      <trkpt lat="59.421621279856" lon="17.966787973809">
        <ele>39.6</ele>
        <time>2019-09-03T07:37:47Z</time>
      </trkpt>
      <trkpt lat="59.421321794569" lon="17.965836376702">
        <ele>40.2</ele>
        <time>2019-09-03T07:37:59Z</time>
      </trkpt>
      <trkpt lat="59.421284327476" lon="17.965423735765">
        <ele>39.2</ele>
        <time>2019-09-03T07:38:04Z</time>
      </trkpt>
      <trkpt lat="59.421069499379" lon="17.964728624798">
        <ele>38</ele>
        <time>2019-09-03T07:38:16Z</time>
      </trkpt>
      <trkpt lat="59.421048963724" lon="17.964649332024">
        <ele>37.6</ele>
        <time>2019-09-03T07:38:17Z</time>
      </trkpt>
      <trkpt lat="59.421040581824" lon="17.964473060667">
        <ele>36.8</ele>
        <time>2019-09-03T07:38:19Z</time>
      </trkpt>
      <trkpt lat="59.421164382487" lon="17.96388020888">
        <ele>35.8</ele>
        <time>2019-09-03T07:38:25Z</time>
      </trkpt>
      <trkpt lat="59.421224815986" lon="17.963437309284">
        <ele>35.6</ele>
        <time>2019-09-03T07:38:29Z</time>
      </trkpt>
      <trkpt lat="59.421217356095" lon="17.963108571166">
        <ele>35.4</ele>
        <time>2019-09-03T07:38:32Z</time>
      </trkpt>
      <trkpt lat="59.421162370831" lon="17.962691571641">
        <ele>35.4</ele>
        <time>2019-09-03T07:38:36Z</time>
      </trkpt>
      <trkpt lat="59.421149211248" lon="17.962344980076">
        <ele>35.4</ele>
        <time>2019-09-03T07:38:40Z</time>
      </trkpt>
      <trkpt lat="59.421060698384" lon="17.961747266787">
        <ele>34.8</ele>
        <time>2019-09-03T07:38:46Z</time>
      </trkpt>
      <trkpt lat="59.420917367894" lon="17.960714532888">
        <ele>34.4</ele>
        <time>2019-09-03T07:38:55Z</time>
      </trkpt>
      <trkpt lat="59.420787364625" lon="17.959673081813">
        <ele>35</ele>
        <time>2019-09-03T07:39:05Z</time>
      </trkpt>
      <trkpt lat="59.420739084881" lon="17.959386839928">
        <ele>36.2</ele>
        <time>2019-09-03T07:39:08Z</time>
      </trkpt>
      <trkpt lat="59.420677645554" lon="17.958990376058">
        <ele>37.4</ele>
        <time>2019-09-03T07:39:13Z</time>
      </trkpt>
      <trkpt lat="59.420632886208" lon="17.95879407196">
        <ele>37.8</ele>
        <time>2019-09-03T07:39:27Z</time>
      </trkpt>
      <trkpt lat="59.420587288672" lon="17.958802202403">
        <ele>37.8</ele>
        <time>2019-09-03T07:39:29Z</time>
      </trkpt>
      <trkpt lat="59.420078088247" lon="17.959261446704">
        <ele>37</ele>
        <time>2019-09-03T07:39:40Z</time>
      </trkpt>
      <trkpt lat="59.419763096445" lon="17.959359514934">
        <ele>37</ele>
        <time>2019-09-03T07:39:45Z</time>
      </trkpt>
      <trkpt lat="59.419212489434" lon="17.95946881491">
        <ele>36.2</ele>
        <time>2019-09-03T07:39:53Z</time>
      </trkpt>
      <trkpt lat="59.418670096685" lon="17.959697724599">
        <ele>36.8</ele>
        <time>2019-09-03T07:40:01Z</time>
      </trkpt>
      <trkpt lat="59.418123429167" lon="17.959850526636">
        <ele>36.6</ele>
        <time>2019-09-03T07:40:09Z</time>
      </trkpt>
      <trkpt lat="59.417558740564" lon="17.960064432724">
        <ele>37</ele>
        <time>2019-09-03T07:40:17Z</time>
      </trkpt>
      <trkpt lat="59.417423456698" lon="17.960124447128">
        <ele>37.2</ele>
        <time>2019-09-03T07:40:19Z</time>
      </trkpt>
      <trkpt lat="59.416989693373" lon="17.960470619598">
        <ele>38.4</ele>
        <time>2019-09-03T07:40:26Z</time>
      </trkpt>
      <trkpt lat="59.416652070441" lon="17.960811092376">
        <ele>39.8</ele>
        <time>2019-09-03T07:40:32Z</time>
      </trkpt>
      <trkpt lat="59.41650547101" lon="17.96091385447">
        <ele>40.8</ele>
        <time>2019-09-03T07:40:35Z</time>
      </trkpt>
      <trkpt lat="59.416311430025" lon="17.961076379511">
        <ele>41.8</ele>
        <time>2019-09-03T07:40:42Z</time>
      </trkpt>
      <trkpt lat="59.416003059924" lon="17.961425485646">
        <ele>41.6</ele>
        <time>2019-09-03T07:40:50Z</time>
      </trkpt>
      <trkpt lat="59.415692678167" lon="17.961783644233">
        <ele>43</ele>
        <time>2019-09-03T07:40:57Z</time>
      </trkpt>
      <trkpt lat="59.415478101527" lon="17.96210827522">
        <ele>44.2</ele>
        <time>2019-09-03T07:41:02Z</time>
      </trkpt>
      <trkpt lat="59.415043164736" lon="17.962899778037">
        <ele>45</ele>
        <time>2019-09-03T07:41:12Z</time>
      </trkpt>
      <trkpt lat="59.415002009607" lon="17.962985608693">
        <ele>45.4</ele>
        <time>2019-09-03T07:41:13Z</time>
      </trkpt>
      <trkpt lat="59.414719707215" lon="17.963756492036">
        <ele>46.6</ele>
        <time>2019-09-03T07:41:21Z</time>
      </trkpt>
      <trkpt lat="59.41445861103" lon="17.964723595658">
        <ele>46.8</ele>
        <time>2019-09-03T07:41:31Z</time>
      </trkpt>
      <trkpt lat="59.414391639649" lon="17.964935406271">
        <ele>47.6</ele>
        <time>2019-09-03T07:41:34Z</time>
      </trkpt>
      <trkpt lat="59.414312346875" lon="17.965223659812">
        <ele>48.6</ele>
        <time>2019-09-03T07:41:38Z</time>
      </trkpt>
      <trkpt lat="59.414250991367" lon="17.965447288904">
        <ele>49.8</ele>
        <time>2019-09-03T07:41:41Z</time>
      </trkpt>
      <trkpt lat="59.414133728586" lon="17.965827072793">
        <ele>51.2</ele>
        <time>2019-09-03T07:41:46Z</time>
      </trkpt>
      <trkpt lat="59.414062482436" lon="17.96606034107">
        <ele>52.4</ele>
        <time>2019-09-03T07:41:49Z</time>
      </trkpt>
      <trkpt lat="59.414040605677" lon="17.966142316052">
        <ele>52.6</ele>
        <time>2019-09-03T07:41:50Z</time>
      </trkpt>
      <trkpt lat="59.413913368435" lon="17.966520088285">
        <ele>53.4</ele>
        <time>2019-09-03T07:41:55Z</time>
      </trkpt>
      <trkpt lat="59.413754196154" lon="17.966881348175">
        <ele>54.4</ele>
        <time>2019-09-03T07:42:00Z</time>
      </trkpt>
      <trkpt lat="59.413690577533" lon="17.967013195462">
        <ele>54.6</ele>
        <time>2019-09-03T07:42:02Z</time>
      </trkpt>
      <trkpt lat="59.413562837377" lon="17.967245374092">
        <ele>55.4</ele>
        <time>2019-09-03T07:42:06Z</time>
      </trkpt>
      <trkpt lat="59.413384805821" lon="17.967496495816">
        <ele>56.8</ele>
        <time>2019-09-03T07:42:11Z</time>
      </trkpt>
      <trkpt lat="59.41327592494" lon="17.967631612044">
        <ele>57.8</ele>
        <time>2019-09-03T07:42:14Z</time>
      </trkpt>
      <trkpt lat="59.413044333043" lon="17.967839315526">
        <ele>58.8</ele>
        <time>2019-09-03T07:42:20Z</time>
      </trkpt>
      <trkpt lat="59.412803101961" lon="17.967977030143">
        <ele>60</ele>
        <time>2019-09-03T07:42:26Z</time>
      </trkpt>
      <trkpt lat="59.412248220181" lon="17.96809798096">
        <ele>61</ele>
        <time>2019-09-03T07:42:38Z</time>
      </trkpt>
      <trkpt lat="59.412196587677" lon="17.968093035639">
        <ele>61</ele>
        <time>2019-09-03T07:42:39Z</time>
      </trkpt>
      <trkpt lat="59.41198092139" lon="17.96806529155">
        <ele>61.4</ele>
        <time>2019-09-03T07:42:43Z</time>
      </trkpt>
      <trkpt lat="59.411873800708" lon="17.968089347603">
        <ele>61.4</ele>
        <time>2019-09-03T07:42:45Z</time>
      </trkpt>
      <trkpt lat="59.411308106277" lon="17.968314988351">
        <ele>60.8</ele>
        <time>2019-09-03T07:42:55Z</time>
      </trkpt>
      <trkpt lat="59.410920946316" lon="17.96867214111">
        <ele>60</ele>
        <time>2019-09-03T07:43:01Z</time>
      </trkpt>
      <trkpt lat="59.410489865199" lon="17.969437995313">
        <ele>60.2</ele>
        <time>2019-09-03T07:43:09Z</time>
      </trkpt>
      <trkpt lat="59.410187530066" lon="17.970189181191">
        <ele>58.6</ele>
        <time>2019-09-03T07:43:15Z</time>
      </trkpt>
      <trkpt lat="59.41008912656" lon="17.970468130823">
        <ele>57.4</ele>
        <time>2019-09-03T07:43:17Z</time>
      </trkpt>
      <trkpt lat="59.409946801898" lon="17.970893428429">
        <ele>56.2</ele>
        <time>2019-09-03T07:43:20Z</time>
      </trkpt>
      <trkpt lat="59.409608173138" lon="17.971808983366">
        <ele>55.2</ele>
        <time>2019-09-03T07:43:27Z</time>
      </trkpt>
      <trkpt lat="59.409556121539" lon="17.971939824825">
        <ele>55</ele>
        <time>2019-09-03T07:43:28Z</time>
      </trkpt>
      <trkpt lat="59.409338443596" lon="17.972435949486">
        <ele>54</ele>
        <time>2019-09-03T07:43:32Z</time>
      </trkpt>
      <trkpt lat="59.408983134855" lon="17.973157547257">
        <ele>53</ele>
        <time>2019-09-03T07:43:38Z</time>
      </trkpt>
      <trkpt lat="59.408721871032" lon="17.973625592553">
        <ele>53.2</ele>
        <time>2019-09-03T07:43:43Z</time>
      </trkpt>
      <trkpt lat="59.408607709554" lon="17.973742855334">
        <ele>53</ele>
        <time>2019-09-03T07:43:45Z</time>
      </trkpt>
      <trkpt lat="59.4084848309" lon="17.973816616054">
        <ele>52.8</ele>
        <time>2019-09-03T07:43:47Z</time>
      </trkpt>
      <trkpt lat="59.408094569636" lon="17.974570316502">
        <ele>52</ele>
        <time>2019-09-03T07:44:04Z</time>
      </trkpt>
      <trkpt lat="59.408041596028" lon="17.974614321477">
        <ele>52</ele>
        <time>2019-09-03T07:44:05Z</time>
      </trkpt>
      <trkpt lat="59.407856942771" lon="17.974756310863">
        <ele>50.6</ele>
        <time>2019-09-03T07:44:08Z</time>
      </trkpt>
      <trkpt lat="59.407309520882" lon="17.975029560803">
        <ele>50.2</ele>
        <time>2019-09-03T07:44:16Z</time>
      </trkpt>
      <trkpt lat="59.407092178215" lon="17.975086892999">
        <ele>50</ele>
        <time>2019-09-03T07:44:19Z</time>
      </trkpt>
      <trkpt lat="59.406932000106" lon="17.975102818609">
        <ele>49.6</ele>
        <time>2019-09-03T07:44:21Z</time>
      </trkpt>
      <trkpt lat="59.40677743787" lon="17.975199881011">
        <ele>49.4</ele>
        <time>2019-09-03T07:44:23Z</time>
      </trkpt>
      <trkpt lat="59.406618349408" lon="17.975341283664">
        <ele>49.2</ele>
        <time>2019-09-03T07:44:25Z</time>
      </trkpt>
      <trkpt lat="59.406390780823" lon="17.975575725407">
        <ele>48.2</ele>
        <time>2019-09-03T07:44:28Z</time>
      </trkpt>
      <trkpt lat="59.406324060899" lon="17.975678906596">
        <ele>48</ele>
        <time>2019-09-03T07:44:29Z</time>
      </trkpt>
      <trkpt lat="59.406046284733" lon="17.97625440785">
        <ele>47.2</ele>
        <time>2019-09-03T07:44:33Z</time>
      </trkpt>
      <trkpt lat="59.405891890135" lon="17.976620193966">
        <ele>46</ele>
        <time>2019-09-03T07:44:36Z</time>
      </trkpt>
      <trkpt lat="59.405787619299" lon="17.976780372075">
        <ele>45.6</ele>
        <time>2019-09-03T07:44:38Z</time>
      </trkpt>
      <trkpt lat="59.405692233277" lon="17.976847678732">
        <ele>44.8</ele>
        <time>2019-09-03T07:44:40Z</time>
      </trkpt>
      <trkpt lat="59.405540939982" lon="17.976887408938">
        <ele>44</ele>
        <time>2019-09-03T07:44:44Z</time>
      </trkpt>
      <trkpt lat="59.405503975803" lon="17.976852959329">
        <ele>43.6</ele>
        <time>2019-09-03T07:44:45Z</time>
      </trkpt>
      <trkpt lat="59.405436166232" lon="17.97674223443">
        <ele>43.4</ele>
        <time>2019-09-03T07:44:47Z</time>
      </trkpt>
      <trkpt lat="59.405227959836" lon="17.976573422964">
        <ele>42.8</ele>
        <time>2019-09-03T07:44:51Z</time>
      </trkpt>
      <trkpt lat="59.405117067299" lon="17.97644383879">
        <ele>42.6</ele>
        <time>2019-09-03T07:44:53Z</time>
      </trkpt>
      <trkpt lat="59.40501891525" lon="17.97624937871">
        <ele>42</ele>
        <time>2019-09-03T07:44:55Z</time>
      </trkpt>
      <trkpt lat="59.404846751024" lon="17.975768090012">
        <ele>41.6</ele>
        <time>2019-09-03T07:44:59Z</time>
      </trkpt>
      <trkpt lat="59.404470990447" lon="17.974934593876">
        <ele>41</ele>
        <time>2019-09-03T07:45:06Z</time>
      </trkpt>
      <trkpt lat="59.404260520938" lon="17.974701660875">
        <ele>40.8</ele>
        <time>2019-09-03T07:45:09Z</time>
      </trkpt>
      <trkpt lat="59.403717122361" lon="17.974395050973">
        <ele>42</ele>
        <time>2019-09-03T07:45:17Z</time>
      </trkpt>
      <trkpt lat="59.403444710611" lon="17.974267143179">
        <ele>42.6</ele>
        <time>2019-09-03T07:45:21Z</time>
      </trkpt>
      <trkpt lat="59.403374721746" lon="17.974219785444">
        <ele>42.6</ele>
        <time>2019-09-03T07:45:22Z</time>
      </trkpt>
      <trkpt lat="59.403110021344" lon="17.973938824156">
        <ele>42.8</ele>
        <time>2019-09-03T07:45:26Z</time>
      </trkpt>
      <trkpt lat="59.402977000591" lon="17.973900435054">
        <ele>42.8</ele>
        <time>2019-09-03T07:45:28Z</time>
      </trkpt>
      <trkpt lat="59.402865688959" lon="17.973962712571">
        <ele>43</ele>
        <time>2019-09-03T07:45:30Z</time>
      </trkpt>
      <trkpt lat="59.402789581307" lon="17.974153149339">
        <ele>43.4</ele>
        <time>2019-09-03T07:45:32Z</time>
      </trkpt>
      <trkpt lat="59.402583218929" lon="17.974696631735">
        <ele>43.6</ele>
        <time>2019-09-03T07:45:36Z</time>
      </trkpt>
      <trkpt lat="59.402169655983" lon="17.975616377622">
        <ele>42.8</ele>
        <time>2019-09-03T07:45:43Z</time>
      </trkpt>
      <trkpt lat="59.401920797372" lon="17.976144521141">
        <ele>42.6</ele>
        <time>2019-09-03T07:45:47Z</time>
      </trkpt>
      <trkpt lat="59.401508407892" lon="17.977050017798">
        <ele>41.6</ele>
        <time>2019-09-03T07:45:54Z</time>
      </trkpt>
      <trkpt lat="59.401081014811" lon="17.977935062619">
        <ele>40.6</ele>
        <time>2019-09-03T07:46:01Z</time>
      </trkpt>
      <trkpt lat="59.400667954779" lon="17.978851623384">
        <ele>40.6</ele>
        <time>2019-09-03T07:46:08Z</time>
      </trkpt>
      <trkpt lat="59.400610287307" lon="17.978977268065">
        <ele>40.4</ele>
        <time>2019-09-03T07:46:09Z</time>
      </trkpt>
      <trkpt lat="59.400198819836" lon="17.979836915729">
        <ele>39.8</ele>
        <time>2019-09-03T07:46:16Z</time>
      </trkpt>
      <trkpt lat="59.399772264945" lon="17.980670076589">
        <ele>39.8</ele>
        <time>2019-09-03T07:46:23Z</time>
      </trkpt>
      <trkpt lat="59.399561879255" lon="17.981199561212">
        <ele>39.8</ele>
        <time>2019-09-03T07:46:27Z</time>
      </trkpt>
      <trkpt lat="59.399369682288" lon="17.981566353156">
        <ele>39.2</ele>
        <time>2019-09-03T07:46:30Z</time>
      </trkpt>
      <trkpt lat="59.399008757674" lon="17.982263559598">
        <ele>38.6</ele>
        <time>2019-09-03T07:46:36Z</time>
      </trkpt>
      <trkpt lat="59.398590668502" lon="17.982803353958">
        <ele>38.2</ele>
        <time>2019-09-03T07:46:42Z</time>
      </trkpt>
      <trkpt lat="59.398124551043" lon="17.983429900983">
        <ele>37</ele>
        <time>2019-09-03T07:46:49Z</time>
      </trkpt>
      <trkpt lat="59.39767972361" lon="17.983993835215">
        <ele>36</ele>
        <time>2019-09-03T07:46:55Z</time>
      </trkpt>
      <trkpt lat="59.397201284758" lon="17.98449046279">
        <ele>35.4</ele>
        <time>2019-09-03T07:47:01Z</time>
      </trkpt>
      <trkpt lat="59.396888891345" lon="17.984804113488">
        <ele>34.8</ele>
        <time>2019-09-03T07:47:05Z</time>
      </trkpt>
      <trkpt lat="59.396565685281" lon="17.985123966792">
        <ele>33.8</ele>
        <time>2019-09-03T07:47:09Z</time>
      </trkpt>
      <trkpt lat="59.396028070215" lon="17.985650182474">
        <ele>33.8</ele>
        <time>2019-09-03T07:47:16Z</time>
      </trkpt>
      <trkpt lat="59.395520378532" lon="17.986024434309">
        <ele>34.4</ele>
        <time>2019-09-03T07:47:23Z</time>
      </trkpt>
      <trkpt lat="59.394985110398" lon="17.986347640373">
        <ele>33.2</ele>
        <time>2019-09-03T07:47:30Z</time>
      </trkpt>
      <trkpt lat="59.394734575407" lon="17.986502705523">
        <ele>32.8</ele>
        <time>2019-09-03T07:47:33Z</time>
      </trkpt>
      <trkpt lat="59.394237528737" lon="17.986804453923">
        <ele>31.6</ele>
        <time>2019-09-03T07:47:39Z</time>
      </trkpt>
      <trkpt lat="59.393757162048" lon="17.986959183797">
        <ele>31.2</ele>
        <time>2019-09-03T07:47:45Z</time>
      </trkpt>
      <trkpt lat="59.393450049232" lon="17.987198403223">
        <ele>30.4</ele>
        <time>2019-09-03T07:47:48Z</time>
      </trkpt>
      <trkpt lat="59.39300932893" lon="17.987480789434">
        <ele>29.2</ele>
        <time>2019-09-03T07:47:53Z</time>
      </trkpt>
      <trkpt lat="59.392769690409" lon="17.987751273347">
        <ele>28.2</ele>
        <time>2019-09-03T07:47:56Z</time>
      </trkpt>
      <trkpt lat="59.392695678232" lon="17.987864848092">
        <ele>28.2</ele>
        <time>2019-09-03T07:47:57Z</time>
      </trkpt>
      <trkpt lat="59.392437431893" lon="17.988370360481">
        <ele>28</ele>
        <time>2019-09-03T07:48:01Z</time>
      </trkpt>
      <trkpt lat="59.392189662929" lon="17.989343247614">
        <ele>27.6</ele>
        <time>2019-09-03T07:48:07Z</time>
      </trkpt>
      <trkpt lat="59.392016492875" lon="17.990203901106">
        <ele>27</ele>
        <time>2019-09-03T07:48:12Z</time>
      </trkpt>
      <trkpt lat="59.391920184844" lon="17.990541691676">
        <ele>26</ele>
        <time>2019-09-03T07:48:14Z</time>
      </trkpt>
      <trkpt lat="59.391865451037" lon="17.990709748771">
        <ele>25.4</ele>
        <time>2019-09-03T07:48:15Z</time>
      </trkpt>
      <trkpt lat="59.391811890696" lon="17.990879063151">
        <ele>24.4</ele>
        <time>2019-09-03T07:48:16Z</time>
      </trkpt>
      <trkpt lat="59.391706530213" lon="17.991224732707">
        <ele>22.8</ele>
        <time>2019-09-03T07:48:18Z</time>
      </trkpt>
      <trkpt lat="59.39154249643" lon="17.991758492099">
        <ele>21.6</ele>
        <time>2019-09-03T07:48:21Z</time>
      </trkpt>
      <trkpt lat="59.391372846774" lon="17.992284623962">
        <ele>20.4</ele>
        <time>2019-09-03T07:48:24Z</time>
      </trkpt>
      <trkpt lat="59.391054418393" lon="17.993291206333">
        <ele>20.8</ele>
        <time>2019-09-03T07:48:30Z</time>
      </trkpt>
      <trkpt lat="59.390731463786" lon="17.994255460109">
        <ele>19.8</ele>
        <time>2019-09-03T07:48:36Z</time>
      </trkpt>
      <trkpt lat="59.390521748648" lon="17.994900698771">
        <ele>19.4</ele>
        <time>2019-09-03T07:48:40Z</time>
      </trkpt>
      <trkpt lat="59.390208265588" lon="17.995847769652">
        <ele>19.6</ele>
        <time>2019-09-03T07:48:46Z</time>
      </trkpt>
      <trkpt lat="59.390037274828" lon="17.996283125538">
        <ele>19.8</ele>
        <time>2019-09-03T07:48:49Z</time>
      </trkpt>
      <trkpt lat="59.389756062083" lon="17.996693335724">
        <ele>21</ele>
        <time>2019-09-03T07:48:54Z</time>
      </trkpt>
      <trkpt lat="59.389652713256" lon="17.996824596278">
        <ele>22.4</ele>
        <time>2019-09-03T07:48:56Z</time>
      </trkpt>
      <trkpt lat="59.389414834934" lon="17.997152915301">
        <ele>23.4</ele>
        <time>2019-09-03T07:49:01Z</time>
      </trkpt>
      <trkpt lat="59.389204952158" lon="17.997452484407">
        <ele>24.6</ele>
        <time>2019-09-03T07:49:05Z</time>
      </trkpt>
      <trkpt lat="59.388943185421" lon="17.997796896678">
        <ele>25.8</ele>
        <time>2019-09-03T07:49:10Z</time>
      </trkpt>
      <trkpt lat="59.388785018968" lon="17.997955649864">
        <ele>27.2</ele>
        <time>2019-09-03T07:49:13Z</time>
      </trkpt>
      <trkpt lat="59.388696673742" lon="17.998051957895">
        <ele>28.6</ele>
        <time>2019-09-03T07:49:15Z</time>
      </trkpt>
      <trkpt lat="59.388655099518" lon="17.998108284263">
        <ele>29.2</ele>
        <time>2019-09-03T07:49:16Z</time>
      </trkpt>
      <trkpt lat="59.388613106199" lon="17.99817391454">
        <ele>29.8</ele>
        <time>2019-09-03T07:49:17Z</time>
      </trkpt>
      <trkpt lat="59.388524006602" lon="17.99830802494">
        <ele>31</ele>
        <time>2019-09-03T07:49:19Z</time>
      </trkpt>
      <trkpt lat="59.388376149886" lon="17.998510531644">
        <ele>31.8</ele>
        <time>2019-09-03T07:49:22Z</time>
      </trkpt>
      <trkpt lat="59.388280093312" lon="17.998662998405">
        <ele>32</ele>
        <time>2019-09-03T07:49:24Z</time>
      </trkpt>
      <trkpt lat="59.388049004329" lon="17.99897187142">
        <ele>31.8</ele>
        <time>2019-09-03T07:49:28Z</time>
      </trkpt>
      <trkpt lat="59.387914893929" lon="17.999068766184">
        <ele>31.6</ele>
        <time>2019-09-03T07:49:30Z</time>
      </trkpt>
      <trkpt lat="59.387778017502" lon="17.999057115343">
        <ele>31</ele>
        <time>2019-09-03T07:49:32Z</time>
      </trkpt>
      <trkpt lat="59.387692773579" lon="17.9988897288">
        <ele>29.6</ele>
        <time>2019-09-03T07:49:34Z</time>
      </trkpt>
      <trkpt lat="59.387587245458" lon="17.998596278481">
        <ele>28.6</ele>
        <time>2019-09-03T07:49:37Z</time>
      </trkpt>
      <trkpt lat="59.387541061189" lon="17.998372146475">
        <ele>28.6</ele>
        <time>2019-09-03T07:49:39Z</time>
      </trkpt>
      <trkpt lat="59.387489931599" lon="17.998096214327">
        <ele>29.6</ele>
        <time>2019-09-03T07:49:42Z</time>
      </trkpt>
      <trkpt lat="59.38746973122" lon="17.998009377843">
        <ele>29.8</ele>
        <time>2019-09-03T07:49:43Z</time>
      </trkpt>
      <trkpt lat="59.387427402625" lon="17.997878704022">
        <ele>30</ele>
        <time>2019-09-03T07:49:44Z</time>
      </trkpt>
      <trkpt lat="59.387314749889" lon="17.997745264174">
        <ele>30.6</ele>
        <time>2019-09-03T07:49:46Z</time>
      </trkpt>
      <trkpt lat="59.386733548943" lon="17.997718861189">
        <ele>30</ele>
        <time>2019-09-03T07:49:54Z</time>
      </trkpt>
      <trkpt lat="59.386153270006" lon="17.997721878673">
        <ele>28.6</ele>
        <time>2019-09-03T07:50:00Z</time>
      </trkpt>
      <trkpt lat="59.385968700568" lon="17.997725063795">
        <ele>27.2</ele>
        <time>2019-09-03T07:50:02Z</time>
      </trkpt>
      <trkpt lat="59.385786058967" lon="17.997732607505">
        <ele>26</ele>
        <time>2019-09-03T07:50:04Z</time>
      </trkpt>
      <trkpt lat="59.385426978371" lon="17.997763620535">
        <ele>24.8</ele>
        <time>2019-09-03T07:50:08Z</time>
      </trkpt>
      <trkpt lat="59.384881819595" lon="17.99782690388">
        <ele>24.2</ele>
        <time>2019-09-03T07:50:14Z</time>
      </trkpt>
      <trkpt lat="59.384708565722" lon="17.997829250812">
        <ele>23.4</ele>
        <time>2019-09-03T07:50:16Z</time>
      </trkpt>
      <trkpt lat="59.384117474134" lon="17.997873758701">
        <ele>23.2</ele>
        <time>2019-09-03T07:50:23Z</time>
      </trkpt>
      <trkpt lat="59.383782114315" lon="17.997959170262">
        <ele>22.2</ele>
        <time>2019-09-03T07:50:27Z</time>
      </trkpt>
      <trkpt lat="59.383628641726" lon="17.998092191015">
        <ele>21.4</ele>
        <time>2019-09-03T07:50:29Z</time>
      </trkpt>
      <trkpt lat="59.38355622211" lon="17.998183218449">
        <ele>20.8</ele>
        <time>2019-09-03T07:50:30Z</time>
      </trkpt>
      <trkpt lat="59.383095133791" lon="17.998866175661">
        <ele>20</ele>
        <time>2019-09-03T07:50:37Z</time>
      </trkpt>
      <trkpt lat="59.383038053052" lon="17.998974721266">
        <ele>20.2</ele>
        <time>2019-09-03T07:50:38Z</time>
      </trkpt>
      <trkpt lat="59.382953479681" lon="17.999231626501">
        <ele>20.2</ele>
        <time>2019-09-03T07:50:40Z</time>
      </trkpt>
      <trkpt lat="59.382855411451" lon="17.999647955474">
        <ele>20.2</ele>
        <time>2019-09-03T07:50:43Z</time>
      </trkpt>
      <trkpt lat="59.382751978805" lon="17.999883151588">
        <ele>20</ele>
        <time>2019-09-03T07:50:45Z</time>
      </trkpt>
      <trkpt lat="59.382683163406" lon="17.999970910081">
        <ele>19.6</ele>
        <time>2019-09-03T07:50:46Z</time>
      </trkpt>
      <trkpt lat="59.382211430074" lon="18.000501400532">
        <ele>19</ele>
        <time>2019-09-03T07:50:53Z</time>
      </trkpt>
      <trkpt lat="59.381776241826" lon="18.001171868713">
        <ele>18.6</ele>
        <time>2019-09-03T07:51:00Z</time>
      </trkpt>
      <trkpt lat="59.381712287929" lon="18.001282090698">
        <ele>18.6</ele>
        <time>2019-09-03T07:51:01Z</time>
      </trkpt>
      <trkpt lat="59.381525371559" lon="18.001608565703">
        <ele>19.4</ele>
        <time>2019-09-03T07:51:04Z</time>
      </trkpt>
      <trkpt lat="59.381480612213" lon="18.001651313393">
        <ele>19.8</ele>
        <time>2019-09-03T07:51:05Z</time>
      </trkpt>
      <trkpt lat="59.381294953128" lon="18.00173873661">
        <ele>19.8</ele>
        <time>2019-09-03T07:51:10Z</time>
      </trkpt>
      <trkpt lat="59.381187161894" lon="18.00170856177">
        <ele>19.8</ele>
        <time>2019-09-03T07:51:12Z</time>
      </trkpt>
      <trkpt lat="59.38066195204" lon="18.001422068428">
        <ele>20.6</ele>
        <time>2019-09-03T07:51:21Z</time>
      </trkpt>
      <trkpt lat="59.380606547681" lon="18.001404801714">
        <ele>20.6</ele>
        <time>2019-09-03T07:51:22Z</time>
      </trkpt>
      <trkpt lat="59.380549718399" lon="18.001390720122">
        <ele>20.8</ele>
        <time>2019-09-03T07:51:23Z</time>
      </trkpt>
      <trkpt lat="59.380340422356" lon="18.001329783709">
        <ele>21.8</ele>
        <time>2019-09-03T07:51:27Z</time>
      </trkpt>
      <trkpt lat="59.380288203119" lon="18.001323664922">
        <ele>22</ele>
        <time>2019-09-03T07:51:28Z</time>
      </trkpt>
      <trkpt lat="59.380027023115" lon="18.001387702638">
        <ele>23</ele>
        <time>2019-09-03T07:51:33Z</time>
      </trkpt>
      <trkpt lat="59.379703314137" lon="18.001606637866">
        <ele>24.2</ele>
        <time>2019-09-03T07:51:39Z</time>
      </trkpt>
      <trkpt lat="59.379149522004" lon="18.002021039002">
        <ele>24</ele>
        <time>2019-09-03T07:51:49Z</time>
      </trkpt>
      <trkpt lat="59.378886917077" lon="18.00221985767">
        <ele>25.2</ele>
        <time>2019-09-03T07:51:54Z</time>
      </trkpt>
      <trkpt lat="59.378633029326" lon="18.002394285009">
        <ele>26.4</ele>
        <time>2019-09-03T07:51:59Z</time>
      </trkpt>
      <trkpt lat="59.378338237903" lon="18.002622272689">
        <ele>27.6</ele>
        <time>2019-09-03T07:52:05Z</time>
      </trkpt>
      <trkpt lat="59.378021485902" lon="18.002857384984">
        <ele>28</ele>
        <time>2019-09-03T07:52:11Z</time>
      </trkpt>
      <trkpt lat="59.377812608954" lon="18.003123091214">
        <ele>28.8</ele>
        <time>2019-09-03T07:52:15Z</time>
      </trkpt>
      <trkpt lat="59.377611024259" lon="18.003171957691">
        <ele>28.4</ele>
        <time>2019-09-03T07:52:18Z</time>
      </trkpt>
      <trkpt lat="59.377476410945" lon="18.003258207442">
        <ele>27.4</ele>
        <time>2019-09-03T07:52:20Z</time>
      </trkpt>
      <trkpt lat="59.377185894291" lon="18.003556938358">
        <ele>26.4</ele>
        <time>2019-09-03T07:52:24Z</time>
      </trkpt>
      <trkpt lat="59.377039713955" lon="18.003702783418">
        <ele>25.2</ele>
        <time>2019-09-03T07:52:26Z</time>
      </trkpt>
      <trkpt lat="59.376803092918" lon="18.003950133287">
        <ele>23.6</ele>
        <time>2019-09-03T07:52:29Z</time>
      </trkpt>
      <trkpt lat="59.376712233122" lon="18.004014506279">
        <ele>23.2</ele>
        <time>2019-09-03T07:52:30Z</time>
      </trkpt>
      <trkpt lat="59.376519281784" lon="18.00410075603">
        <ele>22.4</ele>
        <time>2019-09-03T07:52:32Z</time>
      </trkpt>
      <trkpt lat="59.376244858378" lon="18.004229921109">
        <ele>21.2</ele>
        <time>2019-09-03T07:52:35Z</time>
      </trkpt>
      <trkpt lat="59.37596724985" lon="18.0043714914">
        <ele>19.8</ele>
        <time>2019-09-03T07:52:38Z</time>
      </trkpt>
      <trkpt lat="59.37544673386" lon="18.00469754731">
        <ele>18.6</ele>
        <time>2019-09-03T07:52:44Z</time>
      </trkpt>
      <trkpt lat="59.374943233127" lon="18.005109182419">
        <ele>17.8</ele>
        <time>2019-09-03T07:52:50Z</time>
      </trkpt>
      <trkpt lat="59.374696134715" lon="18.005321831222">
        <ele>17.4</ele>
        <time>2019-09-03T07:52:53Z</time>
      </trkpt>
      <trkpt lat="59.374364379113" lon="18.005583346502">
        <ele>16.4</ele>
        <time>2019-09-03T07:52:57Z</time>
      </trkpt>
      <trkpt lat="59.373789967506" lon="18.006057007671">
        <ele>15.4</ele>
        <time>2019-09-03T07:53:04Z</time>
      </trkpt>
      <trkpt lat="59.373447063977" lon="18.006341070262">
        <ele>15.4</ele>
        <time>2019-09-03T07:53:08Z</time>
      </trkpt>
      <trkpt lat="59.372888326523" lon="18.006816407811">
        <ele>16</ele>
        <time>2019-09-03T07:53:15Z</time>
      </trkpt>
      <trkpt lat="59.372740888902" lon="18.006937610085">
        <ele>16.4</ele>
        <time>2019-09-03T07:53:17Z</time>
      </trkpt>
      <trkpt lat="59.372472668102" lon="18.007179679357">
        <ele>17.6</ele>
        <time>2019-09-03T07:53:21Z</time>
      </trkpt>
      <trkpt lat="59.372350627638" lon="18.007298618518">
        <ele>18.8</ele>
        <time>2019-09-03T07:53:23Z</time>
      </trkpt>
      <trkpt lat="59.37181150383" lon="18.007720731002">
        <ele>18.4</ele>
        <time>2019-09-03T07:53:31Z</time>
      </trkpt>
      <trkpt lat="59.371452423234" lon="18.007951317071">
        <ele>17.8</ele>
        <time>2019-09-03T07:53:36Z</time>
      </trkpt>
      <trkpt lat="59.371380255075" lon="18.007978893522">
        <ele>17.6</ele>
        <time>2019-09-03T07:53:37Z</time>
      </trkpt>
      <trkpt lat="59.370927883932" lon="18.008053324794">
        <ele>17.4</ele>
        <time>2019-09-03T07:53:43Z</time>
      </trkpt>
      <trkpt lat="59.370355483981" lon="18.008189782126">
        <ele>17.8</ele>
        <time>2019-09-03T07:53:52Z</time>
      </trkpt>
      <trkpt lat="59.369834632715" lon="18.008399245807">
        <ele>18.8</ele>
        <time>2019-09-03T07:54:01Z</time>
      </trkpt>
      <trkpt lat="59.369500781638" lon="18.008499912426">
        <ele>20.2</ele>
        <time>2019-09-03T07:54:08Z</time>
      </trkpt>
      <trkpt lat="59.368963501848" lon="18.008896124839">
        <ele>20.8</ele>
        <time>2019-09-03T07:54:21Z</time>
      </trkpt>
      <trkpt lat="59.368573743498" lon="18.009617303515">
        <ele>21.2</ele>
        <time>2019-09-03T07:54:36Z</time>
      </trkpt>
      <trkpt lat="59.368557901707" lon="18.009650244382">
        <ele>21.2</ele>
        <time>2019-09-03T07:54:37Z</time>
      </trkpt>
      <trkpt lat="59.368392778277" lon="18.010032542841">
        <ele>21.2</ele>
        <time>2019-09-03T07:54:44Z</time>
      </trkpt>
      <trkpt lat="59.368350533501" lon="18.010229266034">
        <ele>21</ele>
        <time>2019-09-03T07:54:46Z</time>
      </trkpt>
      <trkpt lat="59.368136124499" lon="18.010760510856">
        <ele>20.2</ele>
        <time>2019-09-03T07:54:51Z</time>
      </trkpt>
      <trkpt lat="59.367993716018" lon="18.011106599507">
        <ele>20.2</ele>
        <time>2019-09-03T07:54:54Z</time>
      </trkpt>
      <trkpt lat="59.367758436085" lon="18.011564670342">
        <ele>21.2</ele>
        <time>2019-09-03T07:54:59Z</time>
      </trkpt>
      <trkpt lat="59.367511672949" lon="18.011912770649">
        <ele>22.4</ele>
        <time>2019-09-03T07:55:04Z</time>
      </trkpt>
      <trkpt lat="59.367322242009" lon="18.012139165768">
        <ele>22.6</ele>
        <time>2019-09-03T07:55:08Z</time>
      </trkpt>
      <trkpt lat="59.367224257598" lon="18.012164060011">
        <ele>22.6</ele>
        <time>2019-09-03T07:55:10Z</time>
      </trkpt>
      <trkpt lat="59.3671453001" lon="18.012247879011">
        <ele>22.8</ele>
        <time>2019-09-03T07:55:12Z</time>
      </trkpt>
      <trkpt lat="59.367055110856" lon="18.012442003815">
        <ele>23.8</ele>
        <time>2019-09-03T07:55:15Z</time>
      </trkpt>
      <trkpt lat="59.366945224147" lon="18.012548537764">
        <ele>25</ele>
        <time>2019-09-03T07:55:18Z</time>
      </trkpt>
      <trkpt lat="59.366482543267" lon="18.013172570219">
        <ele>26</ele>
        <time>2019-09-03T07:55:29Z</time>
      </trkpt>
      <trkpt lat="59.366434347342" lon="18.013249683699">
        <ele>26</ele>
        <time>2019-09-03T07:55:30Z</time>
      </trkpt>
      <trkpt lat="59.365968816616" lon="18.013893497438">
        <ele>25.4</ele>
        <time>2019-09-03T07:55:39Z</time>
      </trkpt>
      <trkpt lat="59.365490545402" lon="18.014446870476">
        <ele>25.8</ele>
        <time>2019-09-03T07:55:51Z</time>
      </trkpt>
      <trkpt lat="59.365261719532" lon="18.014865797838">
        <ele>26.6</ele>
        <time>2019-09-03T07:55:58Z</time>
      </trkpt>
      <trkpt lat="59.365120316879" lon="18.014989933777">
        <ele>26.8</ele>
        <time>2019-09-03T07:56:01Z</time>
      </trkpt>
      <trkpt lat="59.364995258931" lon="18.015023545196">
        <ele>26.8</ele>
        <time>2019-09-03T07:56:03Z</time>
      </trkpt>
      <trkpt lat="59.364821250687" lon="18.014928578269">
        <ele>26.2</ele>
        <time>2019-09-03T07:56:06Z</time>
      </trkpt>
      <trkpt lat="59.364702395345" lon="18.014881639629">
        <ele>26</ele>
        <time>2019-09-03T07:56:08Z</time>
      </trkpt>
      <trkpt lat="59.364490584732" lon="18.014708553394">
        <ele>26.6</ele>
        <time>2019-09-03T07:56:12Z</time>
      </trkpt>
      <trkpt lat="59.364415399089" lon="18.014686676635">
        <ele>27.2</ele>
        <time>2019-09-03T07:56:14Z</time>
      </trkpt>
      <trkpt lat="59.364355384685" lon="18.014705871186">
        <ele>27.6</ele>
        <time>2019-09-03T07:56:16Z</time>
      </trkpt>
      <trkpt lat="59.364340967817" lon="18.014989095587">
        <ele>27.8</ele>
        <time>2019-09-03T07:56:20Z</time>
      </trkpt>
      <trkpt lat="59.364333927021" lon="18.015193865404">
        <ele>28.4</ele>
        <time>2019-09-03T07:56:23Z</time>
      </trkpt>
      <trkpt lat="59.364301153792" lon="18.015462840575">
        <ele>29.4</ele>
        <time>2019-09-03T07:56:29Z</time>
      </trkpt>
      <trkpt lat="59.364269805486" lon="18.015861567558">
        <ele>30.4</ele>
        <time>2019-09-03T07:56:33Z</time>
      </trkpt>
      <trkpt lat="59.364158326216" lon="18.01638694505">
        <ele>31.4</ele>
        <time>2019-09-03T07:56:38Z</time>
      </trkpt>
      <trkpt lat="59.364088337351" lon="18.01655709762">
        <ele>31.6</ele>
        <time>2019-09-03T07:56:40Z</time>
      </trkpt>
      <trkpt lat="59.363978115366" lon="18.016646281036">
        <ele>32.6</ele>
        <time>2019-09-03T07:56:44Z</time>
      </trkpt>
      <trkpt lat="59.363945006861" lon="18.016767315672">
        <ele>33</ele>
        <time>2019-09-03T07:56:46Z</time>
      </trkpt>
      <trkpt lat="59.363693466042" lon="18.016612669617">
        <ele>33.4</ele>
        <time>2019-09-03T07:56:49Z</time>
      </trkpt>
      <trkpt lat="59.363640743891" lon="18.016546284969">
        <ele>34</ele>
        <time>2019-09-03T07:56:51Z</time>
      </trkpt>
      <trkpt lat="59.36347067514" lon="18.016023505866">
        <ele>34.2</ele>
        <time>2019-09-03T07:57:01Z</time>
      </trkpt>
      <trkpt lat="59.363439578291" lon="18.015906829818">
        <ele>35.2</ele>
        <time>2019-09-03T07:57:03Z</time>
      </trkpt>
      <trkpt lat="59.363420802835" lon="18.015836421858">
        <ele>35.6</ele>
        <time>2019-09-03T07:57:04Z</time>
      </trkpt>
      <trkpt lat="59.36335835768" lon="18.015785292268">
        <ele>36.2</ele>
        <time>2019-09-03T07:57:06Z</time>
      </trkpt>
      <trkpt lat="59.362807499212" lon="18.016059548036">
        <ele>36.6</ele>
        <time>2019-09-03T07:57:18Z</time>
      </trkpt>
      <trkpt lat="59.362719573081" lon="18.016108079237">
        <ele>36.6</ele>
        <time>2019-09-03T07:57:20Z</time>
      </trkpt>
      <trkpt lat="59.362588983079" lon="18.016176056446">
        <ele>37</ele>
        <time>2019-09-03T07:57:23Z</time>
      </trkpt>
      <trkpt lat="59.362510277038" lon="18.016249900985">
        <ele>37.2</ele>
        <time>2019-09-03T07:57:25Z</time>
      </trkpt>
      <trkpt lat="59.362437605965" lon="18.01635425564">
        <ele>37.4</ele>
        <time>2019-09-03T07:57:27Z</time>
      </trkpt>
      <trkpt lat="59.362201487842" lon="18.016589954668">
        <ele>38.6</ele>
        <time>2019-09-03T07:57:33Z</time>
      </trkpt>
      <trkpt lat="59.362101156499" lon="18.016656590773">
        <ele>39.8</ele>
        <time>2019-09-03T07:57:36Z</time>
      </trkpt>
      <trkpt lat="59.361732185261" lon="18.016915926759">
        <ele>38.8</ele>
        <time>2019-09-03T07:57:47Z</time>
      </trkpt>
      <trkpt lat="59.36161408429" lon="18.016996057723">
        <ele>38.2</ele>
        <time>2019-09-03T07:57:50Z</time>
      </trkpt>
      <trkpt lat="59.361442590616" lon="18.017072249194">
        <ele>37.6</ele>
        <time>2019-09-03T07:57:53Z</time>
      </trkpt>
      <trkpt lat="59.361170849418" lon="18.017154224176">
        <ele>36.6</ele>
        <time>2019-09-03T07:57:57Z</time>
      </trkpt>
      <trkpt lat="59.361094909404" lon="18.017170820338">
        <ele>36.2</ele>
        <time>2019-09-03T07:57:58Z</time>
      </trkpt>
      <trkpt lat="59.360925678843" lon="18.017175095107">
        <ele>35.4</ele>
        <time>2019-09-03T07:58:00Z</time>
      </trkpt>
      <trkpt lat="59.360669527979" lon="18.017205605223">
        <ele>34</ele>
        <time>2019-09-03T07:58:03Z</time>
      </trkpt>
      <trkpt lat="59.360446820896" lon="18.017245586886">
        <ele>32.8</ele>
        <time>2019-09-03T07:58:06Z</time>
      </trkpt>
      <trkpt lat="59.360228975315" lon="18.017279785038">
        <ele>31.6</ele>
        <time>2019-09-03T07:58:09Z</time>
      </trkpt>
      <trkpt lat="59.359807868659" lon="18.017317168312">
        <ele>30.6</ele>
        <time>2019-09-03T07:58:14Z</time>
      </trkpt>
      <trkpt lat="59.359372680411" lon="18.017283640712">
        <ele>29.6</ele>
        <time>2019-09-03T07:58:19Z</time>
      </trkpt>
      <trkpt lat="59.358789216352" lon="18.01719496021">
        <ele>28.4</ele>
        <time>2019-09-03T07:58:26Z</time>
      </trkpt>
      <trkpt lat="59.358541195931" lon="18.017138717661">
        <ele>28.4</ele>
        <time>2019-09-03T07:58:29Z</time>
      </trkpt>
      <trkpt lat="59.357962425736" lon="18.017004188166">
        <ele>28</ele>
        <time>2019-09-03T07:58:36Z</time>
      </trkpt>
      <trkpt lat="59.357409387974" lon="18.01684543498">
        <ele>27</ele>
        <time>2019-09-03T07:58:43Z</time>
      </trkpt>
      <trkpt lat="59.357065394798" lon="18.016747031474">
        <ele>26</ele>
        <time>2019-09-03T07:58:47Z</time>
      </trkpt>
      <trkpt lat="59.35678108075" lon="18.016642090086">
        <ele>25.8</ele>
        <time>2019-09-03T07:58:51Z</time>
      </trkpt>
      <trkpt lat="59.356274227257" lon="18.016417203709">
        <ele>26.8</ele>
        <time>2019-09-03T07:58:59Z</time>
      </trkpt>
      <trkpt lat="59.355760249149" lon="18.016242608732">
        <ele>26.2</ele>
        <time>2019-09-03T07:59:07Z</time>
      </trkpt>
      <trkpt lat="59.355616248107" lon="18.016043035693">
        <ele>26</ele>
        <time>2019-09-03T07:59:10Z</time>
      </trkpt>
      <trkpt lat="59.355529411623" lon="18.015903141782">
        <ele>25.6</ele>
        <time>2019-09-03T07:59:12Z</time>
      </trkpt>
      <trkpt lat="59.355406700607" lon="18.015763666966">
        <ele>25</ele>
        <time>2019-09-03T07:59:15Z</time>
      </trkpt>
      <trkpt lat="59.355338304303" lon="18.015752770496">
        <ele>25</ele>
        <time>2019-09-03T07:59:17Z</time>
      </trkpt>
      <trkpt lat="59.35523294382" lon="18.015719159077">
        <ele>24.6</ele>
        <time>2019-09-03T07:59:19Z</time>
      </trkpt>
      <trkpt lat="59.355166307715" lon="18.015657971207">
        <ele>24.4</ele>
        <time>2019-09-03T07:59:21Z</time>
      </trkpt>
      <trkpt lat="59.355124146758" lon="18.015581947374">
        <ele>23.8</ele>
        <time>2019-09-03T07:59:24Z</time>
      </trkpt>
      <trkpt lat="59.35510805351" lon="18.015574990397">
        <ele>23.2</ele>
        <time>2019-09-03T07:59:47Z</time>
      </trkpt>
      <trkpt lat="59.355050805133" lon="18.015500642944">
        <ele>22.8</ele>
        <time>2019-09-03T08:00:02Z</time>
      </trkpt>
      <trkpt lat="59.355024318329" lon="18.015446076775">
        <ele>22.2</ele>
        <time>2019-09-03T08:00:22Z</time>
      </trkpt>
      <trkpt lat="59.354985258675" lon="18.015388493122">
        <ele>22</ele>
        <time>2019-09-03T08:00:24Z</time>
      </trkpt>
      <trkpt lat="59.354931614515" lon="18.015308529796">
        <ele>21.8</ele>
        <time>2019-09-03T08:00:26Z</time>
      </trkpt>
      <trkpt lat="59.354803958178" lon="18.015135946475">
        <ele>21.6</ele>
        <time>2019-09-03T08:00:30Z</time>
      </trkpt>
      <trkpt lat="59.355108640243" lon="18.01413556671">
        <ele>21.2</ele>
        <time>2019-09-03T08:00:41Z</time>
      </trkpt>
      <trkpt lat="59.355367473315" lon="18.013169385097">
        <ele>20.8</ele>
        <time>2019-09-03T08:00:50Z</time>
      </trkpt>
      <trkpt lat="59.355389098617" lon="18.0130802855">
        <ele>20.6</ele>
        <time>2019-09-03T08:00:51Z</time>
      </trkpt>
      <trkpt lat="59.355381135812" lon="18.012953299715">
        <ele>20.6</ele>
        <time>2019-09-03T08:00:52Z</time>
      </trkpt>
      <trkpt lat="59.355606022189" lon="18.011929869725">
        <ele>20.2</ele>
        <time>2019-09-03T08:01:01Z</time>
      </trkpt>
      <trkpt lat="59.35569143375" lon="18.011620661434">
        <ele>21.6</ele>
        <time>2019-09-03T08:01:04Z</time>
      </trkpt>
      <trkpt lat="59.355700570021" lon="18.011419076739">
        <ele>21.8</ele>
        <time>2019-09-03T08:01:09Z</time>
      </trkpt>
      <trkpt lat="59.355649356612" lon="18.01147012251">
        <ele>21.6</ele>
        <time>2019-09-03T08:01:11Z</time>
      </trkpt>
      <trkpt lat="59.355511809633" lon="18.011781091">
        <ele>22.4</ele>
        <time>2019-09-03T08:01:17Z</time>
      </trkpt>
      <trkpt lat="59.355467385563" lon="18.011941604385">
        <ele>22.6</ele>
        <time>2019-09-03T08:01:19Z</time>
      </trkpt>
      <trkpt lat="59.355371412808" lon="18.01231082708">
        <ele>23.6</ele>
        <time>2019-09-03T08:01:23Z</time>
      </trkpt>
      <trkpt lat="59.355327072557" lon="18.012393053519">
        <ele>23.6</ele>
        <time>2019-09-03T08:01:24Z</time>
      </trkpt>
      <trkpt lat="59.355274769501" lon="18.012442590548">
        <ele>23.8</ele>
        <time>2019-09-03T08:01:25Z</time>
      </trkpt>
      <trkpt lat="59.355147196983" lon="18.012488271903">
        <ele>24.2</ele>
        <time>2019-09-03T08:01:27Z</time>
      </trkpt>
      <trkpt lat="59.354719803902" lon="18.012863781023">
        <ele>24</ele>
        <time>2019-09-03T08:01:34Z</time>
      </trkpt>
      <trkpt lat="59.354601535293" lon="18.012891944207">
        <ele>24</ele>
        <time>2019-09-03T08:01:36Z</time>
      </trkpt>
      <trkpt lat="59.354436914777" lon="18.01286570886">
        <ele>24.6</ele>
        <time>2019-09-03T08:01:39Z</time>
      </trkpt>
      <trkpt lat="59.35439978296" lon="18.012822290618">
        <ele>25</ele>
        <time>2019-09-03T08:01:40Z</time>
      </trkpt>
      <trkpt lat="59.354360471849" lon="18.012771412485">
        <ele>25.2</ele>
        <time>2019-09-03T08:01:41Z</time>
      </trkpt>
      <trkpt lat="59.354282017265" lon="18.012700166335">
        <ele>26</ele>
        <time>2019-09-03T08:01:43Z</time>
      </trkpt>
      <trkpt lat="59.354227367277" lon="18.012695304833">
        <ele>26.4</ele>
        <time>2019-09-03T08:01:44Z</time>
      </trkpt>
      <trkpt lat="59.354039528898" lon="18.012716343402">
        <ele>27.2</ele>
        <time>2019-09-03T08:01:47Z</time>
      </trkpt>
      <trkpt lat="59.353983118711" lon="18.012692287349">
        <ele>27.4</ele>
        <time>2019-09-03T08:01:48Z</time>
      </trkpt>
      <trkpt lat="59.353930480379" lon="18.012637302085">
        <ele>27.4</ele>
        <time>2019-09-03T08:01:49Z</time>
      </trkpt>
      <trkpt lat="59.353707857115" lon="18.01222365532">
        <ele>28.4</ele>
        <time>2019-09-03T08:01:55Z</time>
      </trkpt>
      <trkpt lat="59.353700900138" lon="18.012140506872">
        <ele>28.8</ele>
        <time>2019-09-03T08:01:56Z</time>
      </trkpt>
      <trkpt lat="59.35370408526" lon="18.012068003437">
        <ele>29.2</ele>
        <time>2019-09-03T08:01:57Z</time>
      </trkpt>
      <trkpt lat="59.353747419683" lon="18.011958452004">
        <ele>30</ele>
        <time>2019-09-03T08:01:59Z</time>
      </trkpt>
      <trkpt lat="59.35378958064" lon="18.011585708911">
        <ele>31.4</ele>
        <time>2019-09-03T08:02:04Z</time>
      </trkpt>
      <trkpt lat="59.353710036409" lon="18.01138127437">
        <ele>32.6</ele>
        <time>2019-09-03T08:02:07Z</time>
      </trkpt>
      <trkpt lat="59.353565364815" lon="18.011096792684">
        <ele>33.8</ele>
        <time>2019-09-03T08:02:12Z</time>
      </trkpt>
      <trkpt lat="59.353466206938" lon="18.010964945397">
        <ele>34.4</ele>
        <time>2019-09-03T08:02:16Z</time>
      </trkpt>
      <trkpt lat="59.35341993885" lon="18.011019595385">
        <ele>34.6</ele>
        <time>2019-09-03T08:02:18Z</time>
      </trkpt>
      <trkpt lat="59.353381885024" lon="18.011154795432">
        <ele>34.6</ele>
        <time>2019-09-03T08:02:20Z</time>
      </trkpt>
      <trkpt lat="59.353342741551" lon="18.011299550845">
        <ele>34.4</ele>
        <time>2019-09-03T08:02:22Z</time>
      </trkpt>
      <trkpt lat="59.353270489573" lon="18.011369036796">
        <ele>34.2</ele>
        <time>2019-09-03T08:02:24Z</time>
      </trkpt>
      <trkpt lat="59.353133780784" lon="18.011285385434">
        <ele>34.2</ele>
        <time>2019-09-03T08:02:27Z</time>
      </trkpt>
      <trkpt lat="59.352909229683" lon="18.01120525447">
        <ele>34</ele>
        <time>2019-09-03T08:02:31Z</time>
      </trkpt>
      <trkpt lat="59.3523763923" lon="18.011034850443">
        <ele>32.8</ele>
        <time>2019-09-03T08:02:40Z</time>
      </trkpt>
      <trkpt lat="59.351992082185" lon="18.010988666174">
        <ele>33.8</ele>
        <time>2019-09-03T08:02:46Z</time>
      </trkpt>
      <trkpt lat="59.351420185148" lon="18.011087824051">
        <ele>34.2</ele>
        <time>2019-09-03T08:02:55Z</time>
      </trkpt>
      <trkpt lat="59.350887683041" lon="18.011530220733">
        <ele>34.2</ele>
        <time>2019-09-03T08:03:05Z</time>
      </trkpt>
      <trkpt lat="59.350657516067" lon="18.011832472047">
        <ele>35.2</ele>
        <time>2019-09-03T08:03:09Z</time>
      </trkpt>
      <trkpt lat="59.350523657124" lon="18.011963900239">
        <ele>35</ele>
        <time>2019-09-03T08:03:11Z</time>
      </trkpt>
      <trkpt lat="59.350377812064" lon="18.012055933501">
        <ele>34</ele>
        <time>2019-09-03T08:03:13Z</time>
      </trkpt>
      <trkpt lat="59.350223752742" lon="18.012121144683">
        <ele>33.4</ele>
        <time>2019-09-03T08:03:15Z</time>
      </trkpt>
      <trkpt lat="59.350061814434" lon="18.012129275126">
        <ele>32.8</ele>
        <time>2019-09-03T08:03:17Z</time>
      </trkpt>
      <trkpt lat="59.349905911094" lon="18.012092143309">
        <ele>31.6</ele>
        <time>2019-09-03T08:03:19Z</time>
      </trkpt>
      <trkpt lat="59.349763167337" lon="18.011965660438">
        <ele>30.2</ele>
        <time>2019-09-03T08:03:21Z</time>
      </trkpt>
      <trkpt lat="59.349637774113" lon="18.0117894729">
        <ele>29</ele>
        <time>2019-09-03T08:03:23Z</time>
      </trkpt>
      <trkpt lat="59.349422275464" lon="18.011339700146">
        <ele>28.4</ele>
        <time>2019-09-03T08:03:27Z</time>
      </trkpt>
      <trkpt lat="59.349173333034" lon="18.010979446084">
        <ele>29</ele>
        <time>2019-09-03T08:03:31Z</time>
      </trkpt>
      <trkpt lat="59.349033271485" lon="18.0105908612">
        <ele>28.4</ele>
        <time>2019-09-03T08:03:35Z</time>
      </trkpt>
      <trkpt lat="59.348968227941" lon="18.010413751653">
        <ele>28</ele>
        <time>2019-09-03T08:03:37Z</time>
      </trkpt>
      <trkpt lat="59.348770247463" lon="18.009572376531">
        <ele>27.2</ele>
        <time>2019-09-03T08:03:45Z</time>
      </trkpt>
      <trkpt lat="59.348771840024" lon="18.009374060777">
        <ele>27</ele>
        <time>2019-09-03T08:03:47Z</time>
      </trkpt>
      <trkpt lat="59.34880151195" lon="18.009184546018">
        <ele>26.8</ele>
        <time>2019-09-03T08:03:49Z</time>
      </trkpt>
      <trkpt lat="59.348817102284" lon="18.009084717589">
        <ele>26.6</ele>
        <time>2019-09-03T08:03:50Z</time>
      </trkpt>
      <trkpt lat="59.348809307117" lon="18.008877852297">
        <ele>26</ele>
        <time>2019-09-03T08:03:52Z</time>
      </trkpt>
      <trkpt lat="59.348779635191" lon="18.008784813207">
        <ele>25.6</ele>
        <time>2019-09-03T08:03:53Z</time>
      </trkpt>
      <trkpt lat="59.348719285511" lon="18.008609128583">
        <ele>24.8</ele>
        <time>2019-09-03T08:03:55Z</time>
      </trkpt>
      <trkpt lat="59.34868248897" lon="18.008537463338">
        <ele>24.6</ele>
        <time>2019-09-03T08:03:56Z</time>
      </trkpt>
      <trkpt lat="59.348535135168" lon="18.008433863054">
        <ele>24.2</ele>
        <time>2019-09-03T08:03:59Z</time>
      </trkpt>
      <trkpt lat="59.348434300911" lon="18.008446854999">
        <ele>24</ele>
        <time>2019-09-03T08:04:01Z</time>
      </trkpt>
      <trkpt lat="59.348329359523" lon="18.008696300343">
        <ele>24.4</ele>
        <time>2019-09-03T08:04:04Z</time>
      </trkpt>
      <trkpt lat="59.348039932516" lon="18.009078347345">
        <ele>24.2</ele>
        <time>2019-09-03T08:04:09Z</time>
      </trkpt>
      <trkpt lat="59.347890315601" lon="18.00917180553">
        <ele>24</ele>
        <time>2019-09-03T08:04:11Z</time>
      </trkpt>
      <trkpt lat="59.347734831356" lon="18.009217654523">
        <ele>23.4</ele>
        <time>2019-09-03T08:04:13Z</time>
      </trkpt>
      <trkpt lat="59.347570713754" lon="18.009226874613">
        <ele>23</ele>
        <time>2019-09-03T08:04:15Z</time>
      </trkpt>
      <trkpt lat="59.347398130433" lon="18.00918186381">
        <ele>22.2</ele>
        <time>2019-09-03T08:04:17Z</time>
      </trkpt>
      <trkpt lat="59.347314227614" lon="18.009133500247">
        <ele>21.8</ele>
        <time>2019-09-03T08:04:18Z</time>
      </trkpt>
      <trkpt lat="59.347080875518" lon="18.008938872529">
        <ele>20.8</ele>
        <time>2019-09-03T08:04:21Z</time>
      </trkpt>
      <trkpt lat="59.346600341191" lon="18.008571829128">
        <ele>19.6</ele>
        <time>2019-09-03T08:04:28Z</time>
      </trkpt>
      <trkpt lat="59.346050237094" lon="18.008146447703">
        <ele>18.6</ele>
        <time>2019-09-03T08:04:35Z</time>
      </trkpt>
      <trkpt lat="59.345654527595" lon="18.00784411257">
        <ele>17.6</ele>
        <time>2019-09-03T08:04:40Z</time>
      </trkpt>
      <trkpt lat="59.34510257948" lon="18.007407247942">
        <ele>18.2</ele>
        <time>2019-09-03T08:04:48Z</time>
      </trkpt>
      <trkpt lat="59.344976599523" lon="18.007320160001">
        <ele>18.6</ele>
        <time>2019-09-03T08:04:50Z</time>
      </trkpt>
      <trkpt lat="59.344787168583" lon="18.007298534699">
        <ele>18.6</ele>
        <time>2019-09-03T08:04:53Z</time>
      </trkpt>
      <trkpt lat="59.344669486707" lon="18.007279507786">
        <ele>18.4</ele>
        <time>2019-09-03T08:04:55Z</time>
      </trkpt>
      <trkpt lat="59.344541159818" lon="18.007317310155">
        <ele>17.6</ele>
        <time>2019-09-03T08:04:57Z</time>
      </trkpt>
      <trkpt lat="59.34447645155" lon="18.007334828326">
        <ele>17.4</ele>
        <time>2019-09-03T08:04:58Z</time>
      </trkpt>
      <trkpt lat="59.344275537407" lon="18.007358381465">
        <ele>17.2</ele>
        <time>2019-09-03T08:05:01Z</time>
      </trkpt>
      <trkpt lat="59.344012597204" lon="18.007534988098">
        <ele>17.4</ele>
        <time>2019-09-03T08:05:05Z</time>
      </trkpt>
      <trkpt lat="59.343896759346" lon="18.007685359384">
        <ele>17.8</ele>
        <time>2019-09-03T08:05:07Z</time>
      </trkpt>
      <trkpt lat="59.343514041792" lon="18.00850795905">
        <ele>17.6</ele>
        <time>2019-09-03T08:05:15Z</time>
      </trkpt>
      <trkpt lat="59.343431815353" lon="18.008822028843">
        <ele>16.8</ele>
        <time>2019-09-03T08:05:18Z</time>
      </trkpt>
      <trkpt lat="59.343391079319" lon="18.009023529719">
        <ele>16.8</ele>
        <time>2019-09-03T08:05:20Z</time>
      </trkpt>
      <trkpt lat="59.343337016064" lon="18.009199717257">
        <ele>17.4</ele>
        <time>2019-09-03T08:05:22Z</time>
      </trkpt>
      <trkpt lat="59.343192428289" lon="18.009470955541">
        <ele>18.2</ele>
        <time>2019-09-03T08:05:25Z</time>
      </trkpt>
      <trkpt lat="59.343046080315" lon="18.0095431237">
        <ele>18.6</ele>
        <time>2019-09-03T08:05:28Z</time>
      </trkpt>
      <trkpt lat="59.342500502444" lon="18.009579920241">
        <ele>19.4</ele>
        <time>2019-09-03T08:05:41Z</time>
      </trkpt>
      <trkpt lat="59.342389861364" lon="18.009658291006">
        <ele>19.6</ele>
        <time>2019-09-03T08:05:44Z</time>
      </trkpt>
      <trkpt lat="59.342236640232" lon="18.009784773877">
        <ele>20</ele>
        <time>2019-09-03T08:05:47Z</time>
      </trkpt>
      <trkpt lat="59.342155587259" lon="18.009901198468">
        <ele>20.4</ele>
        <time>2019-09-03T08:05:49Z</time>
      </trkpt>
      <trkpt lat="59.342098841796" lon="18.010077972739">
        <ele>20.8</ele>
        <time>2019-09-03T08:05:51Z</time>
      </trkpt>
      <trkpt lat="59.3419912182" lon="18.010249466413">
        <ele>20.8</ele>
        <time>2019-09-03T08:05:53Z</time>
      </trkpt>
      <trkpt lat="59.341820143621" lon="18.010463540139">
        <ele>21</ele>
        <time>2019-09-03T08:05:56Z</time>
      </trkpt>
      <trkpt lat="59.341416555136" lon="18.011130487922">
        <ele>21</ele>
        <time>2019-09-03T08:06:05Z</time>
      </trkpt>
      <trkpt lat="59.341296191052" lon="18.011499542979">
        <ele>20.8</ele>
        <time>2019-09-03T08:06:09Z</time>
      </trkpt>
      <trkpt lat="59.341154453123" lon="18.012562619356">
        <ele>20.2</ele>
        <time>2019-09-03T08:06:22Z</time>
      </trkpt>
      <trkpt lat="59.341030233365" lon="18.012869983629">
        <ele>20.2</ele>
        <time>2019-09-03T08:06:27Z</time>
      </trkpt>
      <trkpt lat="59.340937948646" lon="18.012897727718">
        <ele>20.4</ele>
        <time>2019-09-03T08:06:29Z</time>
      </trkpt>
      <trkpt lat="59.340747260421" lon="18.012843748282">
        <ele>20.6</ele>
        <time>2019-09-03T08:06:33Z</time>
      </trkpt>
      <trkpt lat="59.340647767268" lon="18.012827571215">
        <ele>21</ele>
        <time>2019-09-03T08:06:35Z</time>
      </trkpt>
      <trkpt lat="59.340393795698" lon="18.012746266785">
        <ele>20.8</ele>
        <time>2019-09-03T08:06:43Z</time>
      </trkpt>
      <trkpt lat="59.340324980299" lon="18.012884819592">
        <ele>20.8</ele>
        <time>2019-09-03T08:06:45Z</time>
      </trkpt>
      <trkpt lat="59.340282819342" lon="18.013063605519">
        <ele>20.8</ele>
        <time>2019-09-03T08:06:47Z</time>
      </trkpt>
      <trkpt lat="59.340197826876" lon="18.013789645697">
        <ele>19.6</ele>
        <time>2019-09-03T08:06:53Z</time>
      </trkpt>
      <trkpt lat="59.340147535476" lon="18.01413389033">
        <ele>19</ele>
        <time>2019-09-03T08:06:56Z</time>
      </trkpt>
      <trkpt lat="59.340121048672" lon="18.014255260242">
        <ele>18.6</ele>
        <time>2019-09-03T08:06:57Z</time>
      </trkpt>
      <trkpt lat="59.340085593235" lon="18.014379396181">
        <ele>18.2</ele>
        <time>2019-09-03T08:06:58Z</time>
      </trkpt>
      <trkpt lat="59.339974197784" lon="18.014618447969">
        <ele>17.6</ele>
        <time>2019-09-03T08:07:00Z</time>
      </trkpt>
      <trkpt lat="59.339910998258" lon="18.014725903927">
        <ele>17.6</ele>
        <time>2019-09-03T08:07:01Z</time>
      </trkpt>
      <trkpt lat="59.339569435833" lon="18.015258908948">
        <ele>19</ele>
        <time>2019-09-03T08:07:07Z</time>
      </trkpt>
      <trkpt lat="59.339460890228" lon="18.015383296344">
        <ele>20</ele>
        <time>2019-09-03T08:07:09Z</time>
      </trkpt>
      <trkpt lat="59.33941043119" lon="18.0154104537">
        <ele>20.4</ele>
        <time>2019-09-03T08:07:10Z</time>
      </trkpt>
      <trkpt lat="59.339316805367" lon="18.015387738751">
        <ele>21.6</ele>
        <time>2019-09-03T08:07:12Z</time>
      </trkpt>
      <trkpt lat="59.339289312735" lon="18.015272655264">
        <ele>23.2</ele>
        <time>2019-09-03T08:07:14Z</time>
      </trkpt>
      <trkpt lat="59.339243966656" lon="18.015094036975">
        <ele>24.4</ele>
        <time>2019-09-03T08:07:17Z</time>
      </trkpt>
      <trkpt lat="59.339203984993" lon="18.014928075355">
        <ele>25.8</ele>
        <time>2019-09-03T08:07:20Z</time>
      </trkpt>
      <trkpt lat="59.339131984472" lon="18.014726406841">
        <ele>27.2</ele>
        <time>2019-09-03T08:07:24Z</time>
      </trkpt>
      <trkpt lat="59.339072808258" lon="18.014573018071">
        <ele>28.2</ele>
        <time>2019-09-03T08:07:27Z</time>
      </trkpt>
      <trkpt lat="59.338886897716" lon="18.01415400689">
        <ele>29.2</ele>
        <time>2019-09-03T08:07:34Z</time>
      </trkpt>
      <trkpt lat="59.33880190525" lon="18.013987290899">
        <ele>29.2</ele>
        <time>2019-09-03T08:07:37Z</time>
      </trkpt>
      <trkpt lat="59.338718421526" lon="18.013809929895">
        <ele>30.4</ele>
        <time>2019-09-03T08:07:40Z</time>
      </trkpt>
      <trkpt lat="59.338611552301" lon="18.013129487253">
        <ele>31.6</ele>
        <time>2019-09-03T08:07:50Z</time>
      </trkpt>
      <trkpt lat="59.338575091036" lon="18.012911306396">
        <ele>32.8</ele>
        <time>2019-09-03T08:07:53Z</time>
      </trkpt>
      <trkpt lat="59.33822439234" lon="18.012712571547">
        <ele>34</ele>
        <time>2019-09-03T08:08:02Z</time>
      </trkpt>
      <trkpt lat="59.3381606899" lon="18.012716594859">
        <ele>34.2</ele>
        <time>2019-09-03T08:08:03Z</time>
      </trkpt>
      <trkpt lat="59.337964888716" lon="18.012777363634">
        <ele>34</ele>
        <time>2019-09-03T08:08:06Z</time>
      </trkpt>
      <trkpt lat="59.33769549445" lon="18.012742746387">
        <ele>34</ele>
        <time>2019-09-03T08:08:12Z</time>
      </trkpt>
      <trkpt lat="59.337583260809" lon="18.012752217934">
        <ele>34</ele>
        <time>2019-09-03T08:08:15Z</time>
      </trkpt>
      <trkpt lat="59.337445546192" lon="18.012793875977">
        <ele>34.4</ele>
        <time>2019-09-03T08:08:18Z</time>
      </trkpt>
      <trkpt lat="59.337354015844" lon="18.012856153494">
        <ele>34.6</ele>
        <time>2019-09-03T08:08:20Z</time>
      </trkpt>
      <trkpt lat="59.337179420867" lon="18.013125799217">
        <ele>35.2</ele>
        <time>2019-09-03T08:08:24Z</time>
      </trkpt>
      <trkpt lat="59.337048495589" lon="18.013317325632">
        <ele>35.6</ele>
        <time>2019-09-03T08:08:27Z</time>
      </trkpt>
      <trkpt lat="59.336928718238" lon="18.013561322741">
        <ele>36</ele>
        <time>2019-09-03T08:08:30Z</time>
      </trkpt>
      <trkpt lat="59.336677428876" lon="18.01403833667">
        <ele>33.8</ele>
        <time>2019-09-03T08:08:36Z</time>
      </trkpt>
      <trkpt lat="59.336641219068" lon="18.014124334964">
        <ele>32.8</ele>
        <time>2019-09-03T08:08:37Z</time>
      </trkpt>
      <trkpt lat="59.336539714259" lon="18.014291721507">
        <ele>30.8</ele>
        <time>2019-09-03T08:08:39Z</time>
      </trkpt>
      <trkpt lat="59.336489506678" lon="18.014382078389">
        <ele>30</ele>
        <time>2019-09-03T08:08:40Z</time>
      </trkpt>
      <trkpt lat="59.336436616889" lon="18.014462125534">
        <ele>29.4</ele>
        <time>2019-09-03T08:08:41Z</time>
      </trkpt>
      <trkpt lat="59.336347014378" lon="18.014639235081">
        <ele>28.8</ele>
        <time>2019-09-03T08:08:43Z</time>
      </trkpt>
      <trkpt lat="59.336211981969" lon="18.01486479201">
        <ele>29</ele>
        <time>2019-09-03T08:08:46Z</time>
      </trkpt>
      <trkpt lat="59.33609790431" lon="18.01476840016">
        <ele>29.6</ele>
        <time>2019-09-03T08:08:48Z</time>
      </trkpt>
      <trkpt lat="59.335991957094" lon="18.014561702506">
        <ele>30.4</ele>
        <time>2019-09-03T08:08:50Z</time>
      </trkpt>
      <trkpt lat="59.335770255839" lon="18.014141350221">
        <ele>30.4</ele>
        <time>2019-09-03T08:08:54Z</time>
      </trkpt>
      <trkpt lat="59.335644778796" lon="18.013878996751">
        <ele>29</ele>
        <time>2019-09-03T08:08:57Z</time>
      </trkpt>
      <trkpt lat="59.335582249822" lon="18.013745053989">
        <ele>27.4</ele>
        <time>2019-09-03T08:08:59Z</time>
      </trkpt>
      <trkpt lat="59.335487785809" lon="18.013576745437">
        <ele>26.2</ele>
        <time>2019-09-03T08:09:02Z</time>
      </trkpt>
      <trkpt lat="59.335359878015" lon="18.013379686968">
        <ele>25</ele>
        <time>2019-09-03T08:09:07Z</time>
      </trkpt>
      <trkpt lat="59.335345125871" lon="18.013377926769">
        <ele>24.6</ele>
        <time>2019-09-03T08:09:08Z</time>
      </trkpt>
    </trkseg>
  </trk>
</gpx>